createdAt,value
2022-10-11T00:02:44.368Z,60.70
2022-10-11T00:05:59.377Z,60.64
2022-10-11T00:09:07.350Z,60.91
2022-10-11T00:12:22.355Z,61.01
2022-10-11T00:15:25.088Z,61.32
2022-10-11T00:18:39.403Z,61.31
2022-10-11T00:21:47.372Z,61.88
2022-10-11T00:24:56.004Z,61.83
2022-10-11T00:28:11.471Z,61.69
2022-10-11T00:31:19.943Z,61.82
2022-10-11T00:34:28.390Z,61.78
2022-10-11T00:37:38.715Z,61.78
2022-10-11T00:40:53.433Z,62.19
2022-10-11T00:44:11.528Z,62.30
2022-10-11T00:47:30.454Z,62.29
2022-10-11T00:50:41.399Z,62.63
2022-10-11T00:53:51.933Z,62.74
2022-10-11T00:57:06.406Z,63.06
2022-10-11T01:00:16.240Z,62.91
2022-10-11T01:03:34.380Z,62.86
2022-10-11T01:06:36.144Z,62.88
2022-10-11T01:09:51.390Z,63.02
2022-10-11T01:13:18.348Z,63.29
2022-10-11T01:16:46.433Z,63.21
2022-10-11T01:20:14.916Z,63.02
2022-10-11T01:23:53.729Z,63.04
2022-10-11T01:27:35.411Z,63.25
2022-10-11T01:30:45.393Z,63.29
2022-10-11T01:34:18.403Z,63.42
2022-10-11T01:37:41.608Z,63.56
2022-10-11T01:41:01.432Z,64.03
2022-10-11T01:44:11.422Z,63.87
2022-10-11T01:47:22.086Z,64.00
2022-10-11T01:50:43.459Z,64.12
2022-10-11T01:54:09.743Z,64.41
2022-10-11T01:57:41.411Z,64.70
2022-10-11T02:01:07.467Z,64.66
2022-10-11T02:04:32.463Z,64.61
2022-10-11T02:07:49.330Z,64.95
2022-10-11T02:11:16.432Z,64.89
2022-10-11T02:14:24.924Z,64.86
2022-10-11T02:17:45.420Z,65.13
2022-10-11T02:21:04.503Z,65.43
2022-10-11T02:24:28.399Z,65.64
2022-10-11T02:27:39.892Z,66.14
2022-10-11T02:30:57.436Z,66.63
2022-10-11T02:34:16.425Z,66.88
2022-10-11T02:37:56.476Z,67.32
2022-10-11T02:41:19.444Z,67.64
2022-10-11T02:44:41.449Z,67.86
2022-10-11T02:47:57.439Z,67.86
2022-10-11T02:51:06.538Z,67.95
2022-10-11T02:54:15.011Z,67.94
2022-10-11T02:57:23.462Z,68.07
2022-10-11T03:00:32.141Z,68.45
2022-10-11T03:03:40.436Z,69.09
2022-10-11T03:06:49.003Z,69.50
2022-10-11T03:10:03.507Z,70.12
2022-10-11T03:13:17.234Z,70.94
2022-10-11T03:16:32.434Z,71.10
2022-10-11T03:19:34.272Z,71.50
2022-10-11T03:22:49.517Z,71.87
2022-10-11T03:25:57.460Z,72.11
2022-10-11T03:29:19.452Z,72.34
2022-10-11T03:32:27.477Z,72.15
2022-10-11T03:35:36.062Z,71.72
2022-10-11T03:38:44.490Z,71.76
2022-10-11T03:41:53.063Z,71.52
2022-10-11T03:45:07.476Z,71.05
2022-10-11T03:48:16.499Z,70.51
2022-10-11T03:51:25.060Z,70.43
2022-10-11T03:54:33.597Z,70.30
2022-10-11T03:57:42.618Z,70.64
2022-10-11T04:00:50.528Z,70.28
2022-10-11T04:03:59.111Z,70.38
2022-10-11T04:07:07.464Z,70.59
2022-10-11T04:10:22.516Z,70.78
2022-10-11T04:13:24.223Z,70.98
2022-10-11T04:16:38.499Z,71.13
2022-10-11T04:19:40.245Z,70.98
2022-10-11T04:22:54.498Z,70.88
2022-10-11T04:26:02.745Z,70.97
2022-10-11T04:29:17.776Z,70.52
2022-10-11T04:32:30.547Z,70.43
2022-10-11T04:35:45.515Z,70.50
2022-10-11T04:38:47.224Z,70.56
2022-10-11T04:42:01.542Z,70.50
2022-10-11T04:45:09.507Z,70.47
2022-10-11T04:48:24.560Z,70.24
2022-10-11T04:51:26.324Z,70.08
2022-10-11T04:54:41.498Z,70.07
2022-10-11T04:57:43.217Z,69.98
2022-10-11T05:00:57.519Z,69.69
2022-10-11T05:03:59.233Z,69.55
2022-10-11T05:07:13.523Z,69.40
2022-10-11T05:10:15.320Z,69.05
2022-10-11T05:13:31.570Z,68.81
2022-10-11T05:16:40.221Z,68.73
2022-10-11T05:19:48.569Z,68.60
2022-10-11T05:23:03.530Z,68.63
2022-10-11T05:26:11.508Z,68.57
2022-10-11T05:29:33.511Z,68.92
2022-10-11T05:32:35.312Z,69.05
2022-10-11T05:35:49.582Z,69.30
2022-10-11T05:38:51.422Z,69.44
2022-10-11T05:42:09.761Z,69.47
2022-10-11T05:45:11.893Z,69.15
2022-10-11T05:48:27.600Z,68.91
2022-10-11T05:51:36.219Z,67.95
2022-10-11T05:54:44.601Z,67.11
2022-10-11T05:57:54.430Z,66.28
2022-10-11T06:01:09.629Z,63.16
2022-10-11T06:04:17.553Z,64.27
2022-10-11T06:07:26.400Z,64.79
2022-10-11T06:10:34.559Z,62.25
2022-10-11T06:13:49.574Z,61.37
2022-10-11T06:16:51.271Z,59.53
2022-10-11T06:20:05.584Z,59.32
2022-10-11T06:23:13.634Z,60.12
2022-10-11T06:26:28.603Z,60.90
2022-10-11T06:29:30.470Z,58.54
2022-10-11T06:32:45.660Z,58.89
2022-10-11T06:35:47.587Z,62.02
2022-10-11T06:39:02.584Z,60.92
2022-10-11T06:42:11.534Z,59.57
2022-10-11T06:45:19.675Z,59.98
2022-10-11T06:48:28.087Z,58.29
2022-10-11T06:51:42.595Z,57.85
2022-10-11T06:54:51.145Z,57.68
2022-10-11T06:57:59.654Z,59.61
2022-10-11T07:01:17.655Z,58.60
2022-10-11T07:04:19.536Z,56.66
2022-10-11T07:07:34.695Z,57.17
2022-10-11T07:10:43.496Z,57.12
2022-10-11T07:13:57.665Z,55.24
2022-10-11T07:17:06.233Z,54.81
2022-10-11T07:20:15.594Z,57.04
2022-10-11T07:23:24.863Z,56.43
2022-10-11T07:26:38.776Z,54.40
2022-10-11T07:29:53.988Z,55.37
2022-10-11T07:33:08.624Z,56.24
2022-10-11T07:36:12.383Z,56.08
2022-10-11T07:39:26.678Z,57.36
2022-10-11T07:42:35.484Z,56.52
2022-10-11T07:45:50.639Z,54.57
2022-10-11T07:48:59.308Z,55.07
2022-10-11T07:52:13.655Z,55.20
2022-10-11T07:55:22.251Z,52.98
2022-10-11T07:58:30.671Z,54.26
2022-10-11T08:01:39.372Z,55.08
2022-10-11T08:04:47.640Z,56.78
2022-10-11T08:07:56.659Z,55.85
2022-10-11T08:11:12.709Z,54.92
2022-10-11T08:14:14.581Z,54.68
2022-10-11T08:17:29.650Z,56.41
2022-10-11T08:20:40.189Z,54.94
2022-10-11T08:23:48.815Z,55.07
2022-10-11T08:27:10.668Z,54.94
2022-10-11T08:30:25.709Z,54.90
2022-10-11T08:33:41.691Z,53.00
2022-10-11T08:36:43.572Z,56.09
2022-10-11T08:39:58.807Z,54.63
2022-10-11T08:43:10.693Z,54.47
2022-10-11T08:46:32.706Z,53.83
2022-10-11T08:49:41.700Z,52.22
2022-10-11T08:53:14.701Z,54.53
2022-10-11T08:56:23.691Z,52.84
2022-10-11T08:59:51.731Z,53.08
2022-10-11T09:03:36.662Z,54.63
2022-10-11T09:07:08.847Z,54.51
2022-10-11T09:10:49.807Z,56.59
2022-10-11T09:14:27.735Z,57.15
2022-10-11T09:17:59.603Z,57.72
2022-10-11T09:21:34.683Z,57.61
2022-10-11T09:25:01.683Z,58.09
2022-10-11T09:29:00.914Z,57.34
2022-10-11T09:32:13.855Z,57.49
2022-10-11T09:35:29.731Z,56.79
2022-10-11T09:38:47.712Z,56.06
2022-10-11T09:42:12.811Z,55.44
2022-10-11T09:45:19.080Z,55.96
2022-10-11T09:48:47.745Z,56.58
2022-10-11T09:52:00.276Z,56.77
2022-10-11T09:55:09.747Z,56.22
2022-10-11T09:58:38.787Z,56.32
2022-10-11T10:01:46.786Z,54.85
2022-10-11T10:05:09.723Z,54.37
2022-10-11T10:08:27.249Z,54.95
2022-10-11T10:11:43.713Z,54.96
2022-10-11T10:15:11.768Z,54.42
2022-10-11T10:18:49.754Z,54.22
2022-10-11T10:21:58.462Z,54.74
2022-10-11T10:25:09.703Z,53.90
2022-10-11T10:28:33.741Z,53.38
2022-10-11T10:32:01.926Z,52.04
2022-10-11T10:35:42.731Z,51.61
2022-10-11T10:38:58.688Z,51.86
2022-10-11T10:42:14.168Z,52.70
2022-10-11T10:45:35.835Z,52.72
2022-10-11T10:49:48.764Z,52.44
2022-10-11T10:53:05.719Z,52.36
2022-10-11T10:56:37.788Z,51.52
2022-10-11T11:00:11.768Z,51.01
2022-10-11T11:03:35.815Z,50.75
2022-10-11T11:06:55.072Z,50.83
2022-10-11T11:10:11.827Z,51.05
2022-10-11T11:13:38.448Z,51.07
2022-10-11T11:16:56.821Z,50.46
2022-10-11T11:20:27.813Z,49.13
2022-10-11T11:23:52.672Z,46.28
2022-10-11T11:27:09.838Z,39.28
2022-10-11T11:30:50.783Z,38.89
2022-10-11T11:34:22.743Z,35.30
2022-10-11T11:37:38.788Z,33.93
2022-10-11T11:40:59.780Z,37.48
2022-10-11T11:44:13.784Z,38.15
2022-10-11T11:47:41.015Z,35.11
2022-10-11T11:50:57.787Z,30.93
2022-10-11T11:54:28.303Z,28.10
2022-10-11T11:58:06.992Z,28.09
2022-10-11T12:01:31.170Z,25.74
2022-10-11T12:04:50.842Z,26.23
2022-10-11T12:08:13.783Z,36.30
2022-10-11T12:11:35.435Z,40.33
2022-10-11T12:14:45.497Z,34.61
2022-10-11T12:18:18.876Z,30.92
2022-10-11T12:21:42.757Z,29.47
2022-10-11T12:24:55.702Z,28.30
2022-10-11T12:28:37.852Z,29.95
2022-10-11T12:31:50.279Z,33.07
2022-10-11T12:35:28.848Z,37.30
2022-10-11T12:38:44.843Z,40.57
2022-10-11T12:42:06.940Z,37.41
2022-10-11T12:45:36.800Z,39.59
2022-10-11T12:48:54.301Z,43.33
2022-10-11T12:52:28.876Z,46.10
2022-10-11T12:55:58.831Z,48.27
2022-10-11T12:59:03.083Z,50.19
2022-10-11T13:02:42.809Z,51.16
2022-10-11T13:05:53.932Z,51.85
2022-10-11T13:09:21.859Z,52.73
2022-10-11T13:12:24.212Z,53.11
2022-10-11T13:15:38.863Z,54.06
2022-10-11T13:19:00.877Z,54.03
2022-10-11T13:22:20.601Z,54.27
2022-10-11T13:25:31.827Z,53.73
2022-10-11T13:28:47.625Z,53.69
2022-10-11T13:31:55.886Z,53.30
2022-10-11T13:35:14.616Z,53.23
2022-10-11T13:38:36.843Z,53.18
2022-10-11T13:41:51.945Z,53.28
2022-10-11T13:45:00.881Z,53.08
2022-10-11T13:48:16.216Z,52.23
2022-10-11T13:51:36.947Z,51.50
2022-10-11T13:55:12.880Z,51.47
2022-10-11T13:58:28.335Z,52.08
2022-10-11T14:01:47.946Z,52.78
2022-10-11T14:04:50.631Z,52.57
2022-10-11T14:08:10.919Z,52.50
2022-10-11T14:11:20.874Z,53.56
2022-10-11T14:14:41.041Z,53.49
2022-10-11T14:17:55.940Z,54.17
2022-10-11T14:20:57.785Z,54.06
2022-10-11T14:24:14.948Z,54.43
2022-10-11T14:27:38.032Z,54.86
2022-10-11T14:30:52.886Z,54.60
2022-10-11T14:34:01.481Z,55.37
2022-10-11T14:37:10.864Z,54.72
2022-10-11T14:40:23.561Z,55.08
2022-10-11T14:43:31.875Z,55.59
2022-10-11T14:46:40.662Z,56.34
2022-10-11T14:49:50.949Z,56.17
2022-10-11T14:53:00.107Z,55.86
2022-10-11T14:56:08.169Z,56.16
2022-10-11T14:59:25.861Z,55.98
2022-10-11T15:02:40.936Z,56.14
2022-10-11T15:05:42.740Z,56.27
2022-10-11T15:08:57.988Z,56.47
2022-10-11T15:12:05.887Z,56.25
2022-10-11T15:15:21.912Z,56.64
2022-10-11T15:18:23.702Z,56.89
2022-10-11T15:21:39.917Z,57.17
2022-10-11T15:24:51.654Z,57.77
2022-10-11T15:28:00.954Z,57.77
2022-10-11T15:31:17.148Z,57.64
2022-10-11T15:34:24.950Z,58.03
2022-10-11T15:37:37.210Z,57.85
2022-10-11T15:40:46.002Z,58.19
2022-10-11T15:43:54.492Z,58.23
2022-10-11T15:47:02.919Z,57.91
2022-10-11T15:50:23.899Z,58.20
2022-10-11T15:53:33.919Z,58.24
2022-10-11T15:56:49.001Z,58.10
2022-10-11T15:59:57.701Z,58.12
2022-10-11T16:03:05.925Z,58.03
2022-10-11T16:06:14.707Z,57.94
2022-10-11T16:09:28.933Z,58.09
2022-10-11T16:12:37.482Z,58.26
2022-10-11T16:15:47.920Z,58.38
2022-10-11T16:18:56.447Z,58.75
2022-10-11T16:22:05.162Z,58.98
2022-10-11T16:25:20.110Z,58.90
2022-10-11T16:28:29.257Z,59.31
2022-10-11T16:31:43.961Z,60.05
2022-10-11T16:34:51.961Z,60.45
2022-10-11T16:38:07.953Z,60.69
2022-10-11T16:41:09.727Z,60.83
2022-10-11T16:44:26.980Z,61.28
2022-10-11T16:47:35.060Z,61.32
2022-10-11T16:50:43.572Z,61.44
2022-10-11T16:53:51.973Z,61.60
2022-10-11T16:57:10.989Z,61.15
2022-10-11T17:00:23.089Z,61.32
2022-10-11T17:03:31.536Z,61.17
2022-10-11T17:06:39.950Z,60.96
2022-10-11T17:09:49.621Z,60.39
2022-10-11T17:13:01.981Z,60.02
2022-10-11T17:16:24.958Z,60.62
2022-10-11T17:19:44.829Z,62.44
2022-10-11T17:22:53.949Z,64.48
2022-10-11T17:26:12.166Z,65.00
2022-10-11T17:29:27.275Z,65.13
2022-10-11T17:32:36.030Z,65.28
2022-10-11T17:35:44.568Z,65.99
2022-10-11T17:38:52.988Z,67.26
2022-10-11T17:42:08.010Z,67.80
2022-10-11T17:45:10.069Z,68.44
2022-10-11T17:48:24.990Z,68.76
2022-10-11T17:51:27.187Z,68.77
2022-10-11T17:54:42.188Z,68.66
2022-10-11T17:57:43.952Z,68.45
2022-10-11T18:00:59.113Z,68.65
2022-10-11T18:04:03.745Z,69.18
2022-10-11T18:07:18.014Z,69.33
2022-10-11T18:10:20.344Z,69.77
2022-10-11T18:13:34.998Z,69.88
2022-10-11T18:16:43.676Z,70.51
2022-10-11T18:19:57.983Z,70.75
2022-10-11T18:23:06.643Z,70.58
2022-10-11T18:26:29.390Z,70.52
2022-10-11T18:29:32.167Z,70.54
2022-10-11T18:32:46.999Z,70.26
2022-10-11T18:35:55.130Z,70.03
2022-10-11T18:39:07.345Z,70.18
2022-10-11T18:42:16.018Z,71.10
2022-10-11T18:45:24.556Z,71.03
2022-10-11T18:48:33.014Z,71.52
2022-10-11T18:51:49.035Z,71.74
2022-10-11T18:54:50.725Z,71.70
2022-10-11T18:58:05.044Z,71.47
2022-10-11T19:01:16.232Z,71.00
2022-10-11T19:04:31.020Z,70.60
2022-10-11T19:07:39.536Z,70.28
2022-10-11T19:10:54.040Z,70.15
2022-10-11T19:14:14.068Z,70.20
2022-10-11T19:17:22.871Z,70.31
2022-10-11T19:20:32.063Z,69.94
2022-10-11T19:23:43.967Z,70.31
2022-10-11T19:26:53.063Z,71.05
2022-10-11T19:30:08.668Z,70.90
2022-10-11T19:33:23.040Z,71.06
2022-10-11T19:36:36.455Z,71.25
2022-10-11T19:39:45.714Z,71.30
2022-10-11T19:42:54.044Z,71.58
2022-10-11T19:46:11.063Z,71.56
2022-10-11T19:49:28.052Z,71.63
2022-10-11T19:52:45.015Z,71.44
2022-10-11T19:55:53.059Z,71.33
2022-10-11T19:59:09.056Z,71.15
2022-10-11T20:02:24.103Z,71.10
2022-10-11T20:05:32.058Z,71.05
2022-10-11T20:08:52.766Z,70.65
2022-10-11T20:12:13.675Z,70.32
2022-10-11T20:15:28.051Z,70.27
2022-10-11T20:18:37.062Z,70.52
2022-10-11T20:21:45.993Z,70.95
2022-10-11T20:24:54.103Z,71.64
2022-10-11T20:28:16.188Z,71.77
2022-10-11T20:31:35.054Z,72.28
2022-10-11T20:34:50.081Z,72.67
2022-10-11T20:37:58.620Z,73.02
2022-10-11T20:41:15.127Z,73.31
2022-10-11T20:44:23.711Z,73.60
2022-10-11T20:47:32.487Z,74.17
2022-10-11T20:50:44.301Z,74.57
2022-10-11T20:53:53.123Z,74.52
2022-10-11T20:57:01.708Z,74.32
2022-10-11T21:00:17.120Z,74.12
2022-10-11T21:03:26.154Z,74.77
2022-10-11T21:06:41.091Z,75.99
2022-10-11T21:09:49.157Z,76.20
2022-10-11T21:12:58.111Z,76.27
2022-10-11T21:16:20.091Z,75.55
2022-10-11T21:19:28.712Z,75.10
2022-10-11T21:22:38.101Z,74.64
2022-10-11T21:25:53.119Z,74.48
2022-10-11T21:29:08.128Z,75.07
2022-10-11T21:32:16.115Z,75.75
2022-10-11T21:35:25.418Z,75.39
2022-10-11T21:38:34.116Z,74.91
2022-10-11T21:41:49.112Z,74.66
2022-10-11T21:44:57.144Z,74.86
2022-10-11T21:48:12.114Z,74.94
2022-10-11T21:51:20.251Z,75.56
2022-10-11T21:54:35.131Z,75.96
2022-10-11T21:57:36.943Z,76.41
2022-10-11T22:00:53.160Z,76.63
2022-10-11T22:04:08.144Z,76.68
2022-10-11T22:07:16.162Z,76.62
2022-10-11T22:10:24.639Z,76.76
2022-10-11T22:13:35.208Z,76.99
2022-10-11T22:16:50.132Z,77.15
2022-10-11T22:19:51.928Z,77.13
2022-10-11T22:23:06.140Z,77.25
2022-10-11T22:26:11.137Z,77.64
2022-10-11T22:29:27.678Z,77.87
2022-10-11T22:32:32.260Z,78.03
2022-10-11T22:35:47.136Z,77.76
2022-10-11T22:38:48.863Z,77.60
2022-10-11T22:42:03.150Z,77.59
2022-10-11T22:45:05.454Z,77.65
2022-10-11T22:48:20.142Z,77.74
2022-10-11T22:51:28.159Z,77.72
2022-10-11T22:54:43.235Z,77.83
2022-10-11T22:57:51.170Z,77.92
2022-10-11T23:01:16.185Z,78.09
2022-10-11T23:04:24.736Z,78.33
2022-10-11T23:07:39.435Z,78.49
2022-10-11T23:10:41.302Z,78.65
2022-10-11T23:13:56.150Z,78.75
2022-10-11T23:16:57.968Z,79.02
2022-10-11T23:20:15.163Z,79.01
2022-10-11T23:23:23.274Z,79.18
2022-10-11T23:26:31.663Z,79.45
2022-10-11T23:29:46.204Z,79.24
2022-10-11T23:32:54.827Z,79.09
2022-10-11T23:36:03.192Z,79.27
2022-10-11T23:39:11.712Z,79.15
2022-10-11T23:42:27.231Z,79.00
2022-10-11T23:45:35.676Z,79.20
2022-10-11T23:48:44.228Z,79.37
2022-10-11T23:51:59.223Z,79.64
2022-10-11T23:55:07.204Z,79.69
2022-10-11T23:58:22.179Z,79.67
